createdAt,value
2022-11-01T00:01:12.119Z,28.38
2022-11-01T00:06:04.047Z,31.08
2022-11-01T00:11:09.083Z,25.42
2022-11-01T00:16:00.790Z,21.75
2022-11-01T00:20:53.099Z,20.23
2022-11-01T00:25:44.883Z,19.10
2022-11-01T00:30:37.821Z,15.20
2022-11-01T00:35:31.064Z,15.40
2022-11-01T00:40:22.862Z,14.80
2022-11-01T00:45:14.607Z,16.60
2022-11-01T00:50:06.888Z,13.88
2022-11-01T00:54:58.530Z,15.32
2022-11-01T00:59:50.247Z,12.27
2022-11-01T01:04:43.325Z,10.15
2022-11-01T01:09:35.076Z,9.52
2022-11-01T01:14:31.438Z,10.13
2022-11-01T01:19:25.427Z,8.60
2022-11-01T01:24:17.150Z,8.60
2022-11-01T01:29:08.768Z,5.10
2022-11-01T01:34:00.570Z,8.32
2022-11-01T01:38:53.177Z,5.25
2022-11-01T01:43:45.291Z,3.75
2022-11-01T01:48:39.715Z,3.78
2022-11-01T01:53:44.178Z,6.97
2022-11-01T01:58:50.453Z,8.00
2022-11-01T02:03:42.981Z,7.50
2022-11-01T02:08:36.953Z,7.22
2022-11-01T02:13:29.900Z,10.73
2022-11-01T02:18:48.508Z,11.60
2022-11-01T02:29:22.146Z,12.50
2022-11-01T02:34:23.875Z,10.15
2022-11-01T02:39:18.569Z,13.25
2022-11-01T02:44:16.031Z,12.20
2022-11-01T02:49:11.555Z,11.38
2022-11-01T02:54:17.721Z,9.18
2022-11-01T02:59:18.753Z,10.00
2022-11-01T03:04:10.451Z,7.18
2022-11-01T03:09:06.374Z,8.48
2022-11-01T03:19:35.116Z,5.38
2022-11-01T03:24:29.311Z,3.33
2022-11-01T03:29:23.727Z,1.25
2022-11-01T03:34:18.736Z,0.90
2022-11-01T03:39:18.988Z,1.65
2022-11-01T03:44:13.964Z,0.50
2022-11-01T03:49:05.703Z,0.20
2022-11-01T03:53:57.501Z,0.47
2022-11-01T03:58:49.340Z,1.02
2022-11-01T04:03:41.799Z,0.10
2022-11-01T04:08:34.122Z,0.10
2022-11-01T04:13:25.772Z,0.10
2022-11-01T04:18:43.424Z,1.75
2022-11-01T04:23:35.902Z,1.77
2022-11-01T04:28:27.781Z,2.70
2022-11-01T04:33:19.540Z,2.30
2022-11-01T04:38:12.462Z,2.25
2022-11-01T04:43:04.749Z,1.30
2022-11-01T04:48:14.155Z,2.95
2022-11-01T04:53:06.625Z,3.67
2022-11-01T04:57:58.294Z,1.65
2022-11-01T05:02:51.455Z,2.47
2022-11-01T05:07:43.398Z,3.35
2022-11-01T05:12:35.750Z,2.38
2022-11-01T05:17:27.513Z,3.55
2022-11-01T05:22:19.205Z,2.35
2022-11-01T05:27:10.964Z,3.33
2022-11-01T05:32:02.601Z,3.65
2022-11-01T05:36:54.448Z,7.50
2022-11-01T05:41:46.196Z,4.40
2022-11-01T05:46:37.895Z,6.30
2022-11-01T05:51:29.544Z,7.93
2022-11-01T05:56:21.130Z,6.55
2022-11-01T06:01:13.360Z,4.63
2022-11-01T06:06:05.956Z,6.22
2022-11-01T06:11:02.863Z,7.30
2022-11-01T06:15:59.440Z,4.78
2022-11-01T06:20:52.043Z,3.78
2022-11-01T06:25:43.802Z,5.07
2022-11-01T06:30:35.526Z,5.35
2022-11-01T06:35:30.539Z,6.20
2022-11-01T06:40:22.210Z,6.15
2022-11-01T06:45:15.074Z,7.72
2022-11-01T06:50:07.140Z,7.20
2022-11-01T06:54:59.100Z,8.45
2022-11-01T06:59:50.723Z,6.15
2022-11-01T07:04:42.451Z,6.15
2022-11-01T07:09:35.879Z,6.95
2022-11-01T07:14:27.600Z,5.63
2022-11-01T07:19:19.352Z,5.65
2022-11-01T07:24:11.073Z,8.68
2022-11-01T07:29:03.214Z,5.80
2022-11-01T07:33:54.865Z,9.30
2022-11-01T07:38:46.754Z,14.38
2022-11-01T07:43:38.687Z,7.00
2022-11-01T07:48:30.381Z,10.65
2022-11-01T07:53:22.112Z,15.02
2022-11-01T07:58:15.196Z,7.95
2022-11-01T08:03:12.640Z,11.68
2022-11-01T08:08:05.753Z,6.10
2022-11-01T08:13:20.963Z,8.10
2022-11-01T08:18:12.727Z,7.03
2022-11-01T08:23:05.542Z,5.00
2022-11-01T08:28:06.039Z,7.70
2022-11-01T08:33:02.680Z,2.88
2022-11-01T08:37:55.357Z,7.35
2022-11-01T08:42:47.695Z,3.95
2022-11-01T08:47:40.234Z,4.93
2022-11-01T08:52:31.880Z,7.38
2022-11-01T08:57:23.753Z,4.38
2022-11-01T09:02:15.688Z,6.35
2022-11-01T09:07:08.171Z,4.35
2022-11-01T09:11:59.975Z,6.85
2022-11-01T09:16:52.459Z,4.70
2022-11-01T09:21:45.038Z,5.82
2022-11-01T09:26:36.700Z,4.50
2022-11-01T09:31:28.735Z,7.43
2022-11-01T09:36:21.305Z,8.75
2022-11-01T09:41:51.523Z,6.57
2022-11-01T09:46:52.726Z,8.30
2022-11-01T09:51:46.164Z,6.80
2022-11-01T09:56:51.210Z,6.97
2022-11-01T10:02:18.581Z,5.55
2022-11-01T10:07:39.718Z,11.18
2022-11-01T10:12:49.883Z,13.27
2022-11-01T10:17:52.649Z,7.07
2022-11-01T10:22:48.717Z,11.90
2022-11-01T10:27:50.187Z,8.93
2022-11-01T10:32:54.883Z,7.20
2022-11-01T10:38:11.113Z,8.55
2022-11-01T10:43:20.897Z,7.18
2022-11-01T10:48:21.919Z,8.38
2022-11-01T10:58:41.560Z,9.88
2022-11-01T11:03:34.203Z,5.40
2022-11-01T11:08:26.582Z,7.82
2022-11-01T11:13:24.482Z,4.93
2022-11-01T11:23:34.577Z,13.05
2022-11-01T11:28:31.092Z,7.75
2022-11-01T11:33:23.065Z,13.27
2022-11-01T11:38:14.750Z,6.60
2022-11-01T11:43:34.325Z,9.45
2022-11-01T11:48:25.944Z,7.30
2022-11-01T11:53:23.465Z,7.82
2022-11-01T11:58:56.764Z,7.25
2022-11-01T12:03:51.383Z,5.38
2022-11-01T12:08:47.601Z,9.88
2022-11-01T12:13:42.686Z,7.35
2022-11-01T12:18:34.356Z,6.68
2022-11-01T12:23:32.943Z,11.80
2022-11-01T12:28:39.844Z,8.75
2022-11-01T12:33:37.269Z,10.65
2022-11-01T12:38:57.731Z,8.95
2022-11-01T12:44:12.138Z,2.88
2022-11-01T12:49:24.700Z,6.45
2022-11-01T12:54:39.141Z,5.35
2022-11-01T12:59:36.507Z,4.93
2022-11-01T13:04:31.944Z,3.20
2022-11-01T13:09:32.792Z,8.20
2022-11-01T13:14:43.862Z,4.97
2022-11-01T13:19:57.953Z,5.57
2022-11-01T13:25:00.457Z,4.60
2022-11-01T13:30:02.415Z,5.15
2022-11-01T13:35:00.042Z,1.83
2022-11-01T13:40:31.664Z,5.95
2022-11-01T13:45:29.343Z,4.88
2022-11-01T13:50:36.388Z,3.95
2022-11-01T13:55:28.086Z,2.53
2022-11-01T14:00:46.265Z,4.00
2022-11-01T14:05:39.110Z,4.43
2022-11-01T14:10:30.736Z,2.72
2022-11-01T14:15:31.142Z,4.60
2022-11-01T14:20:26.079Z,2.10
2022-11-01T14:25:17.993Z,2.20
2022-11-01T14:30:16.977Z,2.65
2022-11-01T14:35:12.162Z,2.70
2022-11-01T14:40:15.331Z,4.20
2022-11-01T14:45:26.094Z,3.65
2022-11-01T14:50:45.588Z,4.72
2022-11-01T14:55:38.659Z,7.03
2022-11-01T15:00:32.304Z,2.38
2022-11-01T15:05:24.092Z,5.68
2022-11-01T15:10:15.841Z,7.07
2022-11-01T15:15:15.152Z,3.80
2022-11-01T15:20:13.331Z,2.85
2022-11-01T15:25:06.415Z,2.28
2022-11-01T15:29:58.270Z,2.90
2022-11-01T15:34:55.868Z,3.20
2022-11-01T15:39:47.644Z,2.72
2022-11-01T15:44:43.536Z,2.10
2022-11-01T15:50:05.061Z,1.85
2022-11-01T15:55:16.976Z,5.88
2022-11-01T16:00:22.310Z,4.78
2022-11-01T16:05:19.033Z,6.93
2022-11-01T16:10:23.657Z,4.20
2022-11-01T16:15:26.515Z,2.92
2022-11-01T16:20:30.673Z,1.60
2022-11-01T16:25:25.328Z,1.90
2022-11-01T16:30:40.282Z,3.58
2022-11-01T16:35:34.118Z,1.90
2022-11-01T16:40:30.080Z,3.65
2022-11-01T16:45:21.797Z,1.23
2022-11-01T16:50:19.053Z,3.10
2022-11-01T16:55:16.715Z,2.43
2022-11-01T17:00:15.729Z,1.17
2022-11-01T17:05:13.469Z,1.25
2022-11-01T17:10:25.715Z,1.73
2022-11-01T17:15:19.500Z,4.13
2022-11-01T17:20:20.192Z,5.90
2022-11-01T17:25:16.538Z,3.30
2022-11-01T17:30:09.622Z,3.40
2022-11-01T17:35:02.355Z,8.35
2022-11-01T17:39:54.086Z,5.65
2022-11-01T17:44:45.873Z,4.05
2022-11-01T17:49:37.665Z,2.08
2022-11-01T17:54:29.328Z,2.65
2022-11-01T17:59:21.013Z,2.25
2022-11-01T18:04:12.844Z,3.55
2022-11-01T18:09:18.203Z,1.27
2022-11-01T18:14:28.026Z,0.93
2022-11-01T18:19:39.148Z,2.80
2022-11-01T18:24:37.160Z,1.90
2022-11-01T18:29:29.223Z,2.15
2022-11-01T18:34:41.181Z,0.95
2022-11-01T18:39:40.701Z,1.90
2022-11-01T18:44:32.357Z,1.70
2022-11-01T18:49:28.202Z,2.30
2022-11-01T18:54:30.482Z,1.67
2022-11-01T18:59:34.162Z,1.77
2022-11-01T19:04:31.330Z,0.95
2022-11-01T19:09:25.811Z,2.10
2022-11-01T19:14:21.877Z,2.40
2022-11-01T19:19:17.840Z,2.55
2022-11-01T19:24:37.298Z,2.72
2022-11-01T19:29:34.074Z,3.33
2022-11-01T19:34:28.201Z,3.55
2022-11-01T19:39:29.962Z,3.35
2022-11-01T19:44:24.400Z,3.65
2022-11-01T19:49:24.489Z,3.08
2022-11-01T19:54:16.190Z,2.17
2022-11-01T19:59:15.882Z,2.55
2022-11-01T20:04:27.190Z,2.45
2022-11-01T20:09:25.619Z,4.43
2022-11-01T20:14:17.959Z,4.53
2022-11-01T20:19:13.178Z,3.30
2022-11-01T20:24:08.545Z,3.40
2022-11-01T20:29:00.253Z,3.05
2022-11-01T20:33:53.125Z,4.53
2022-11-01T20:38:45.208Z,3.03
2022-11-01T20:43:37.263Z,2.88
2022-11-01T20:48:29.053Z,2.17
2022-11-01T20:53:22.102Z,2.70
2022-11-01T20:58:15.557Z,0.90
2022-11-01T21:03:19.051Z,3.58
2022-11-01T21:08:10.728Z,4.03
2022-11-01T21:13:07.510Z,0.80
2022-11-01T21:18:08.446Z,2.88
2022-11-01T21:23:23.852Z,2.28
2022-11-01T21:28:29.177Z,3.15
2022-11-01T21:33:38.280Z,3.88
2022-11-01T21:38:41.557Z,2.78
2022-11-01T21:43:35.233Z,3.97
2022-11-01T21:48:29.963Z,2.28
2022-11-01T21:53:22.046Z,0.35
2022-11-01T21:58:13.830Z,1.35
2022-11-01T22:03:05.717Z,3.60
2022-11-01T22:07:57.551Z,1.25
2022-11-01T22:12:49.199Z,3.38
2022-11-01T22:17:42.230Z,2.22
2022-11-01T22:22:34.027Z,2.03
2022-11-01T22:27:25.893Z,0.57
2022-11-01T22:32:18.509Z,0.57
2022-11-01T22:37:16.131Z,2.60
2022-11-01T22:42:16.009Z,2.42
2022-11-01T22:47:20.301Z,1.73
2022-11-01T22:52:24.279Z,2.75
2022-11-01T22:57:23.035Z,1.30
2022-11-01T23:02:36.948Z,1.90
2022-11-01T23:08:10.828Z,0.60
2022-11-01T23:13:30.238Z,1.50
2022-11-01T23:18:27.685Z,3.05
2022-11-01T23:23:22.177Z,1.27
2022-11-01T23:28:14.211Z,2.35
2022-11-01T23:33:11.593Z,1.25
2022-11-01T23:38:11.665Z,2.20
2022-11-01T23:43:03.954Z,1.33
2022-11-01T23:47:56.040Z,1.50
2022-11-01T23:53:14.927Z,1.77
2022-11-01T23:58:10.177Z,0.70
